createdAt,value
2022-08-10T00:01:53.143Z,21.82
2022-08-10T00:04:24.263Z,21.77
2022-08-10T00:06:52.652Z,21.75
2022-08-10T00:09:21.912Z,21.74
2022-08-10T00:11:48.769Z,21.70
2022-08-10T00:14:15.363Z,21.62
2022-08-10T00:16:41.885Z,21.58
2022-08-10T00:19:08.333Z,21.55
2022-08-10T00:21:36.700Z,21.49
2022-08-10T00:24:03.874Z,21.44
2022-08-10T00:27:52.172Z,21.44
2022-08-10T00:29:17.114Z,21.40
2022-08-10T00:31:58.058Z,21.33
2022-08-10T00:34:25.515Z,21.30
2022-08-10T00:36:52.028Z,21.25
2022-08-10T00:39:18.587Z,21.25
2022-08-10T00:41:45.677Z,21.21
2022-08-10T00:44:28.073Z,21.16
2022-08-10T00:46:54.823Z,21.12
2022-08-10T00:49:21.424Z,21.07
2022-08-10T00:51:48.564Z,21.05
2022-08-10T00:54:24.588Z,21.01
2022-08-10T00:57:16.364Z,21.01
2022-08-10T00:59:58.874Z,20.94
2022-08-10T01:02:25.365Z,20.89
2022-08-10T01:05:00.243Z,20.86
2022-08-10T01:07:42.795Z,20.85
2022-08-10T01:10:24.449Z,20.82
2022-08-10T01:12:56.614Z,20.78
2022-08-10T01:15:43.410Z,20.80
2022-08-10T01:18:18.215Z,20.77
2022-08-10T01:20:57.517Z,20.78
2022-08-10T01:23:27.415Z,20.77
2022-08-10T01:26:12.391Z,20.75
2022-08-10T01:29:20.559Z,20.71
2022-08-10T01:31:51.316Z,20.68
2022-08-10T01:34:24.718Z,20.63
2022-08-10T01:37:03.361Z,20.63
2022-08-10T01:39:40.259Z,20.59
2022-08-10T01:42:14.484Z,20.55
2022-08-10T01:44:48.070Z,20.51
2022-08-10T01:47:36.775Z,20.46
2022-08-10T01:50:09.892Z,20.45
2022-08-10T01:52:44.577Z,20.43
2022-08-10T01:55:13.418Z,20.43
2022-08-10T01:57:42.333Z,20.41
2022-08-10T02:00:10.400Z,20.33
2022-08-10T02:02:37.965Z,20.28
2022-08-10T02:05:11.302Z,20.25
2022-08-10T02:07:40.559Z,20.24
2022-08-10T02:10:11.380Z,20.22
2022-08-10T02:12:39.594Z,20.25
2022-08-10T02:15:14.954Z,20.22
2022-08-10T02:18:00.048Z,20.20
2022-08-10T02:20:31.429Z,20.19
2022-08-10T02:23:04.418Z,20.20
2022-08-10T02:25:42.715Z,20.18
2022-08-10T02:28:27.165Z,20.16
2022-08-10T02:31:01.390Z,20.12
2022-08-10T02:33:29.837Z,20.12
2022-08-10T02:36:00.823Z,20.11
2022-08-10T02:38:58.937Z,20.09
2022-08-10T02:45:02.555Z,20.06
2022-08-10T02:45:24.327Z,20.06
2022-08-10T02:47:51.160Z,20.00
2022-08-10T02:50:39.980Z,19.97
2022-08-10T02:53:54.566Z,19.96
2022-08-10T02:56:12.973Z,19.89
2022-08-10T02:58:51.192Z,19.86
2022-08-10T03:01:21.948Z,19.83
2022-08-10T03:04:03.964Z,19.81
2022-08-10T03:06:38.593Z,19.80
2022-08-10T03:09:08.759Z,19.82
2022-08-10T03:12:35.879Z,19.76
2022-08-10T03:14:25.320Z,19.74
2022-08-10T03:16:54.405Z,19.71
2022-08-10T03:20:35.738Z,19.62
2022-08-10T03:22:19.135Z,19.61
2022-08-10T03:24:46.132Z,19.56
2022-08-10T03:27:17.051Z,19.56
2022-08-10T03:30:28.296Z,19.52
2022-08-10T03:32:31.042Z,19.51
2022-08-10T03:34:59.767Z,19.45
2022-08-10T03:37:27.537Z,19.45
2022-08-10T03:40:00.215Z,19.46
2022-08-10T03:42:31.253Z,19.41
2022-08-10T03:44:59.118Z,19.41
2022-08-10T03:47:29.351Z,19.39
2022-08-10T03:49:58.068Z,19.34
2022-08-10T03:52:30.755Z,19.30
2022-08-10T03:54:58.815Z,19.24
2022-08-10T03:57:30.645Z,19.22
2022-08-10T04:00:01.336Z,19.18
2022-08-10T04:02:42.034Z,19.14
2022-08-10T04:05:19.386Z,19.04
2022-08-10T04:07:46.218Z,19.00
2022-08-10T04:10:14.199Z,19.01
2022-08-10T04:12:40.698Z,18.96
2022-08-10T04:15:10.548Z,18.92
2022-08-10T04:18:02.968Z,18.89
2022-08-10T04:20:26.389Z,18.88
2022-08-10T04:23:06.550Z,18.84
2022-08-10T04:25:36.472Z,18.85
2022-08-10T04:28:03.653Z,18.84
2022-08-10T04:30:32.177Z,18.87
2022-08-10T04:33:06.336Z,18.87
2022-08-10T04:35:33.828Z,18.86
2022-08-10T04:38:02.066Z,18.86
2022-08-10T04:40:30.937Z,18.90
2022-08-10T04:43:10.385Z,18.90
2022-08-10T04:45:48.971Z,18.92
2022-08-10T04:48:42.743Z,18.91
2022-08-10T04:51:05.008Z,18.92
2022-08-10T04:53:34.028Z,18.95
2022-08-10T04:56:20.507Z,18.98
2022-08-10T04:58:57.845Z,18.98
2022-08-10T05:01:25.001Z,19.01
2022-08-10T05:04:38.412Z,19.03
2022-08-10T05:06:38.134Z,19.06
2022-08-10T05:09:04.672Z,19.08
2022-08-10T05:11:31.170Z,19.10
2022-08-10T05:13:57.673Z,19.14
2022-08-10T05:16:32.340Z,19.15
2022-08-10T05:18:59.468Z,19.22
2022-08-10T05:22:03.160Z,19.28
2022-08-10T05:24:12.500Z,19.33
2022-08-10T05:26:55.128Z,19.34
2022-08-10T05:29:25.555Z,19.40
2022-08-10T05:31:52.452Z,19.46
2022-08-10T05:34:20.763Z,19.55
2022-08-10T05:36:48.328Z,19.60
2022-08-10T05:39:19.105Z,19.67
2022-08-10T05:41:57.881Z,19.73
2022-08-10T05:44:31.455Z,19.80
2022-08-10T05:47:00.925Z,19.86
2022-08-10T05:49:27.497Z,19.88
2022-08-10T05:51:54.127Z,19.94
2022-08-10T05:54:20.681Z,19.98
2022-08-10T05:56:54.727Z,20.05
2022-08-10T06:00:35.541Z,20.14
2022-08-10T06:02:36.832Z,20.23
2022-08-10T06:05:24.142Z,20.31
2022-08-10T06:07:56.663Z,20.38
2022-08-10T06:10:31.569Z,20.43
2022-08-10T06:13:30.194Z,20.49
2022-08-10T06:16:04.527Z,20.55
2022-08-10T06:18:31.187Z,20.60
2022-08-10T06:20:58.040Z,20.64
2022-08-10T06:23:28.366Z,20.71
2022-08-10T06:26:09.708Z,20.79
2022-08-10T06:28:54.020Z,20.85
2022-08-10T06:31:35.638Z,20.90
2022-08-10T06:34:24.297Z,20.95
2022-08-10T06:36:53.165Z,21.01
2022-08-10T06:39:33.480Z,21.02
2022-08-10T06:42:32.597Z,21.14
2022-08-10T06:45:09.857Z,21.24
2022-08-10T06:47:43.456Z,21.28
2022-08-10T06:50:44.904Z,21.31
2022-08-10T06:53:19.283Z,21.41
2022-08-10T06:55:56.362Z,21.48
2022-08-10T06:58:26.889Z,21.60
2022-08-10T07:00:55.505Z,21.68
2022-08-10T07:03:28.058Z,21.76
2022-08-10T07:05:57.662Z,21.85
2022-08-10T07:08:26.862Z,21.95
2022-08-10T07:10:54.490Z,22.06
2022-08-10T07:14:17.080Z,22.18
2022-08-10T07:16:11.478Z,22.30
2022-08-10T07:18:42.793Z,22.38
2022-08-10T07:21:10.680Z,22.46
2022-08-10T07:23:58.155Z,22.59
2022-08-10T07:26:28.819Z,22.65
2022-08-10T07:28:55.910Z,22.70
2022-08-10T07:31:54.377Z,22.83
2022-08-10T07:34:21.682Z,22.93
2022-08-10T07:36:58.807Z,23.06
2022-08-10T07:40:04.049Z,23.16
2022-08-10T07:42:21.356Z,23.22
2022-08-10T07:44:48.501Z,23.27
2022-08-10T07:47:18.976Z,23.36
2022-08-10T07:50:08.585Z,23.49
2022-08-10T07:52:37.952Z,23.52
2022-08-10T07:55:10.239Z,23.65
2022-08-10T07:57:44.495Z,23.73
2022-08-10T08:00:12.304Z,23.81
2022-08-10T08:02:46.183Z,23.94
2022-08-10T08:05:38.566Z,24.06
2022-08-10T08:08:03.328Z,24.16
2022-08-10T08:10:34.248Z,24.25
2022-08-10T08:13:08.439Z,24.35
2022-08-10T08:16:20.202Z,24.45
2022-08-10T08:18:25.243Z,24.52
2022-08-10T08:20:54.353Z,24.59
2022-08-10T08:24:30.801Z,24.70
2022-08-10T08:26:17.249Z,24.75
2022-08-10T08:28:45.783Z,24.84
2022-08-10T08:31:17.792Z,24.87
2022-08-10T08:33:45.546Z,24.99
2022-08-10T08:36:16.253Z,25.09
2022-08-10T08:38:43.348Z,25.18
2022-08-10T08:41:53.490Z,25.36
2022-08-10T08:45:07.527Z,25.52
2022-08-10T08:48:04.644Z,25.62
2022-08-10T08:50:50.939Z,25.78
2022-08-10T08:54:03.054Z,25.95
2022-08-10T08:57:00.932Z,26.03
2022-08-10T08:59:54.869Z,26.12
2022-08-10T09:02:31.197Z,26.23
2022-08-10T09:05:58.407Z,26.34
2022-08-10T09:08:49.060Z,26.52
2022-08-10T09:12:03.106Z,26.69
2022-08-10T09:14:49.214Z,26.85
2022-08-10T09:17:40.735Z,26.94
2022-08-10T09:20:29.781Z,27.04
2022-08-10T09:23:03.490Z,27.26
2022-08-10T09:25:36.545Z,27.41
2022-08-10T09:28:05.875Z,27.49
2022-08-10T09:30:52.430Z,27.64
2022-08-10T09:36:20.495Z,27.80
2022-08-10T09:36:47.782Z,27.94
2022-08-10T09:40:12.495Z,28.04
2022-08-10T09:42:32.430Z,28.19
2022-08-10T09:45:46.275Z,28.45
2022-08-10T09:48:45.578Z,28.64
2022-08-10T09:51:53.697Z,28.83
2022-08-10T09:54:35.402Z,29.01
2022-08-10T10:00:12.656Z,29.24
2022-08-10T10:03:02.908Z,29.29
2022-08-10T10:05:51.834Z,29.51
2022-08-10T10:08:21.993Z,29.62
2022-08-10T10:11:03.827Z,29.65
2022-08-10T10:14:01.870Z,29.68
2022-08-10T10:16:52.355Z,29.79
2022-08-10T10:19:43.604Z,29.93
2022-08-10T10:22:38.244Z,29.99
2022-08-10T10:25:19.810Z,29.99
2022-08-10T10:27:53.819Z,30.12
2022-08-10T10:30:24.809Z,30.26
2022-08-10T10:33:10.582Z,30.39
2022-08-10T10:35:57.002Z,30.42
2022-08-10T10:38:32.473Z,30.55
2022-08-10T10:41:55.677Z,30.67
2022-08-10T10:44:42.416Z,30.61
2022-08-10T10:47:30.831Z,30.68
2022-08-10T10:50:15.591Z,30.77
2022-08-10T10:53:19.025Z,30.94
2022-08-10T10:56:15.447Z,30.94
2022-08-10T10:58:49.451Z,31.00
2022-08-10T11:01:21.925Z,31.03
2022-08-10T11:04:01.227Z,31.02
2022-08-10T11:06:52.077Z,31.23
2022-08-10T11:10:04.505Z,31.32
2022-08-10T11:12:37.769Z,31.43
2022-08-10T11:15:24.225Z,31.69
2022-08-10T11:17:57.818Z,31.63
2022-08-10T11:20:33.180Z,31.64
2022-08-10T11:23:24.647Z,31.75
2022-08-10T11:26:09.199Z,31.79
2022-08-10T11:29:02.905Z,31.80
2022-08-10T11:31:46.512Z,31.85
2022-08-10T11:34:47.383Z,32.01
2022-08-10T11:37:27.112Z,32.23
2022-08-10T11:40:01.605Z,32.42
2022-08-10T11:42:41.890Z,32.45
2022-08-10T11:45:24.237Z,32.65
2022-08-10T11:47:53.596Z,32.77
2022-08-10T11:50:23.115Z,32.83
2022-08-10T11:52:49.633Z,32.80
2022-08-10T11:55:22.306Z,32.95
2022-08-10T11:57:54.031Z,33.04
2022-08-10T12:00:24.063Z,33.09
2022-08-10T12:02:55.389Z,32.98
2022-08-10T12:05:54.407Z,33.09
2022-08-10T12:10:05.465Z,33.09
2022-08-10T12:11:08.929Z,33.20
2022-08-10T12:13:58.694Z,33.39
2022-08-10T12:16:38.394Z,33.44
2022-08-10T12:19:18.510Z,33.41
2022-08-10T12:21:50.522Z,33.53
2022-08-10T12:24:25.956Z,33.74
2022-08-10T12:27:07.589Z,33.98
2022-08-10T12:29:42.908Z,34.10
2022-08-10T12:32:17.950Z,34.18
2022-08-10T12:35:17.210Z,34.42
2022-08-10T12:38:22.551Z,34.65
2022-08-10T12:40:55.904Z,34.44
2022-08-10T12:44:07.586Z,34.70
2022-08-10T12:46:31.291Z,34.96
2022-08-10T12:49:11.753Z,35.11
2022-08-10T12:51:53.345Z,35.34
2022-08-10T12:54:31.833Z,35.31
2022-08-10T12:57:03.053Z,35.44
2022-08-10T12:59:31.564Z,35.45
2022-08-10T13:02:06.809Z,35.55
2022-08-10T13:04:40.344Z,35.81
2022-08-10T13:07:08.719Z,35.91
2022-08-10T13:09:54.026Z,36.14
2022-08-10T13:12:34.957Z,36.12
2022-08-10T13:15:45.867Z,36.12
2022-08-10T13:18:06.882Z,36.16
2022-08-10T13:20:51.540Z,36.14
2022-08-10T13:23:24.453Z,36.11
2022-08-10T13:25:52.222Z,36.11
2022-08-10T13:28:37.101Z,36.16
2022-08-10T13:31:16.998Z,36.30
2022-08-10T13:34:41.144Z,36.29
2022-08-10T13:36:46.329Z,36.52
2022-08-10T13:39:14.475Z,36.44
2022-08-10T13:41:44.118Z,36.24
2022-08-10T13:44:15.457Z,36.12
2022-08-10T13:46:50.110Z,36.15
2022-08-10T13:49:19.008Z,36.34
2022-08-10T13:51:57.676Z,36.30
2022-08-10T13:54:36.016Z,36.38
2022-08-10T13:57:04.636Z,36.29
2022-08-10T14:00:33.998Z,36.33
2022-08-10T14:02:31.176Z,36.25
2022-08-10T14:04:59.326Z,36.38
2022-08-10T14:07:27.547Z,36.36
2022-08-10T14:10:04.839Z,36.17
2022-08-10T14:12:33.677Z,36.20
2022-08-10T14:15:03.124Z,36.39
2022-08-10T14:17:30.550Z,36.60
2022-08-10T14:20:03.370Z,36.50
2022-08-10T14:22:34.368Z,36.26
2022-08-10T14:25:09.108Z,36.10
2022-08-10T14:28:01.669Z,36.14
2022-08-10T14:30:30.959Z,36.27
2022-08-10T14:33:00.342Z,36.42
2022-08-10T14:36:18.408Z,36.42
2022-08-10T14:38:19.545Z,36.52
2022-08-10T14:40:52.340Z,36.63
2022-08-10T14:43:28.444Z,36.64
2022-08-10T14:46:05.612Z,36.42
2022-08-10T14:48:40.671Z,36.47
2022-08-10T14:51:08.349Z,36.53
2022-08-10T14:53:37.039Z,36.56
2022-08-10T14:56:08.643Z,36.67
2022-08-10T14:58:39.440Z,36.55
2022-08-10T15:01:26.180Z,36.61
2022-08-10T15:04:17.024Z,36.40
2022-08-10T15:06:55.771Z,36.25
2022-08-10T15:09:28.048Z,36.19
2022-08-10T15:12:15.110Z,36.08
2022-08-10T15:14:48.178Z,36.03
2022-08-10T15:17:37.149Z,35.76
2022-08-10T15:20:14.856Z,35.62
2022-08-10T15:23:30.082Z,35.46
2022-08-10T15:25:59.950Z,35.25
2022-08-10T15:29:24.279Z,35.11
2022-08-10T15:31:22.176Z,35.00
2022-08-10T15:34:10.005Z,34.77
2022-08-10T15:37:02.519Z,34.56
2022-08-10T15:40:25.482Z,34.44
2022-08-10T15:42:52.027Z,34.39
2022-08-10T15:45:18.892Z,34.29
2022-08-10T15:48:03.526Z,34.21
2022-08-10T15:50:41.264Z,34.11
2022-08-10T15:53:49.477Z,33.98
2022-08-10T15:56:28.219Z,33.89
2022-08-10T15:59:09.552Z,33.85
2022-08-10T16:02:04.336Z,33.81
2022-08-10T16:04:35.332Z,33.74
2022-08-10T16:07:08.051Z,33.58
2022-08-10T16:10:25.152Z,33.33
2022-08-10T16:12:59.091Z,33.25
2022-08-10T16:15:29.095Z,33.29
2022-08-10T16:18:09.379Z,33.30
2022-08-10T16:20:52.499Z,33.40
2022-08-10T16:23:30.961Z,33.45
2022-08-10T16:26:15.149Z,33.56
2022-08-10T16:28:52.297Z,33.62
2022-08-10T16:31:22.127Z,33.74
2022-08-10T16:33:52.946Z,33.71
2022-08-10T16:36:22.559Z,33.75
2022-08-10T16:38:51.378Z,33.85
2022-08-10T16:42:00.773Z,33.67
2022-08-10T16:44:10.134Z,33.58
2022-08-10T16:46:42.272Z,33.47
2022-08-10T16:49:09.935Z,33.26
2022-08-10T16:51:38.629Z,33.08
2022-08-10T16:54:07.038Z,32.94
2022-08-10T16:56:48.663Z,32.81
2022-08-10T17:02:05.601Z,32.51
2022-08-10T17:04:33.908Z,32.46
2022-08-10T17:07:07.266Z,32.29
2022-08-10T17:09:36.312Z,32.19
2022-08-10T17:12:11.300Z,32.10
2022-08-10T17:14:42.496Z,31.99
2022-08-10T17:17:24.541Z,31.92
2022-08-10T17:19:56.837Z,31.84
2022-08-10T17:22:44.419Z,31.69
2022-08-10T17:25:21.988Z,31.56
2022-08-10T17:28:21.129Z,31.48
2022-08-10T17:30:57.474Z,31.39
2022-08-10T17:33:29.404Z,31.27
2022-08-10T17:36:02.178Z,31.21
2022-08-10T17:38:31.454Z,31.11
2022-08-10T17:41:06.192Z,31.10
2022-08-10T17:43:58.223Z,31.07
2022-08-10T17:46:26.327Z,31.02
2022-08-10T17:48:55.492Z,30.98
2022-08-10T17:51:27.425Z,30.95
2022-08-10T17:53:59.554Z,30.88
2022-08-10T17:56:31.302Z,30.85
2022-08-10T17:59:01.195Z,30.72
2022-08-10T18:01:38.267Z,30.68
2022-08-10T18:04:14.943Z,30.63
2022-08-10T18:06:43.051Z,30.56
2022-08-10T18:09:17.409Z,30.51
2022-08-10T18:11:48.043Z,30.48
2022-08-10T18:14:16.876Z,30.34
2022-08-10T18:16:44.152Z,30.31
2022-08-10T18:19:13.434Z,30.27
2022-08-10T18:21:49.639Z,30.20
2022-08-10T18:24:19.575Z,30.13
2022-08-10T18:26:49.274Z,30.07
2022-08-10T18:29:29.475Z,30.00
2022-08-10T18:32:04.917Z,29.91
2022-08-10T18:34:44.479Z,29.82
2022-08-10T18:37:21.441Z,29.74
2022-08-10T18:39:50.513Z,29.68
2022-08-10T18:42:24.618Z,29.59
2022-08-10T18:45:07.107Z,29.52
2022-08-10T18:47:41.108Z,29.48
2022-08-10T18:50:34.744Z,29.37
2022-08-10T18:53:11.911Z,29.30
2022-08-10T18:56:08.610Z,29.22
2022-08-10T18:58:49.069Z,29.15
2022-08-10T19:01:30.741Z,29.05
2022-08-10T19:04:35.487Z,28.94
2022-08-10T19:07:12.134Z,28.85
2022-08-10T19:09:48.523Z,28.79
2022-08-10T19:12:42.642Z,28.71
2022-08-10T19:15:40.007Z,28.63
2022-08-10T19:18:22.300Z,28.46
2022-08-10T19:20:55.364Z,28.42
2022-08-10T19:23:24.555Z,28.36
2022-08-10T19:26:37.922Z,28.30
2022-08-10T19:29:02.973Z,28.18
2022-08-10T19:31:58.655Z,28.04
2022-08-10T19:34:37.218Z,27.90
2022-08-10T19:37:40.151Z,27.73
2022-08-10T19:40:14.008Z,27.68
2022-08-10T19:42:48.007Z,27.53
2022-08-10T19:45:56.117Z,27.47
2022-08-10T19:48:18.739Z,27.37
2022-08-10T19:51:06.625Z,27.30
2022-08-10T19:53:56.185Z,27.23
2022-08-10T19:56:44.418Z,27.22
2022-08-10T20:00:16.509Z,27.17
2022-08-10T20:02:24.598Z,27.16
2022-08-10T20:05:36.895Z,27.03
2022-08-10T20:08:35.629Z,26.94
2022-08-10T20:11:10.752Z,26.91
2022-08-10T20:14:22.220Z,26.86
2022-08-10T20:16:51.480Z,26.83
2022-08-10T20:19:20.863Z,26.83
2022-08-10T20:21:56.503Z,26.78
2022-08-10T20:24:29.053Z,26.77
2022-08-10T20:27:56.818Z,26.75
2022-08-10T20:30:04.722Z,26.71
2022-08-10T20:32:40.699Z,26.68
2022-08-10T20:35:24.360Z,26.64
2022-08-10T20:38:04.168Z,26.64
2022-08-10T20:40:49.420Z,26.59
2022-08-10T20:43:34.048Z,26.57
2022-08-10T20:46:11.184Z,26.49
2022-08-10T20:48:46.437Z,26.47
2022-08-10T20:51:21.816Z,26.37
2022-08-10T20:53:56.256Z,26.37
2022-08-10T20:56:48.751Z,26.28
2022-08-10T20:59:23.948Z,26.26
2022-08-10T21:02:20.841Z,26.20
2022-08-10T21:04:58.545Z,26.17
2022-08-10T21:07:59.876Z,26.13
2022-08-10T21:10:56.203Z,26.10
2022-08-10T21:14:07.266Z,26.07
2022-08-10T21:16:47.266Z,26.00
2022-08-10T21:19:14.114Z,26.01
2022-08-10T21:21:56.814Z,25.97
2022-08-10T21:24:40.852Z,25.93
2022-08-10T21:27:28.817Z,25.88
2022-08-10T21:30:09.971Z,25.87
2022-08-10T21:32:51.463Z,25.82
2022-08-10T21:35:37.168Z,25.78
2022-08-10T21:38:16.704Z,25.75
2022-08-10T21:41:17.520Z,25.67
2022-08-10T21:44:35.277Z,25.64
2022-08-10T21:47:43.444Z,25.60
2022-08-10T21:53:57.055Z,25.55
2022-08-10T21:57:03.040Z,25.49
2022-08-10T22:00:31.622Z,25.45
2022-08-10T22:03:19.008Z,25.44
2022-08-10T22:06:10.727Z,25.40
2022-08-10T22:09:02.572Z,25.37
2022-08-10T22:11:52.511Z,25.33
2022-08-10T22:14:47.691Z,25.30
2022-08-10T22:18:03.363Z,25.23
2022-08-10T22:20:49.868Z,25.21
2022-08-10T22:23:47.986Z,25.17
2022-08-10T22:26:40.237Z,25.11
2022-08-10T22:29:42.564Z,25.04
2022-08-10T22:32:43.510Z,24.96
2022-08-10T22:36:04.309Z,24.92
2022-08-10T22:39:12.580Z,24.84
2022-08-10T22:42:15.351Z,24.70
2022-08-10T22:45:03.184Z,24.68
2022-08-10T22:47:51.533Z,24.62
2022-08-10T22:50:24.721Z,24.61
2022-08-10T22:53:04.683Z,24.58
2022-08-10T22:55:56.020Z,24.44
2022-08-10T22:58:41.165Z,24.40
2022-08-10T23:01:36.404Z,24.37
2022-08-10T23:04:11.387Z,24.30
2022-08-10T23:06:40.370Z,24.26
2022-08-10T23:09:09.885Z,24.25
2022-08-10T23:11:40.387Z,24.20
2022-08-10T23:14:11.060Z,24.14
2022-08-10T23:17:01.949Z,24.03
2022-08-10T23:19:37.875Z,24.00
2022-08-10T23:22:10.329Z,23.99
2022-08-10T23:24:53.626Z,23.91
2022-08-10T23:27:37.432Z,23.93
2022-08-10T23:30:12.802Z,23.89
2022-08-10T23:32:48.682Z,23.85
2022-08-10T23:36:31.132Z,23.75
2022-08-10T23:38:10.681Z,23.75
2022-08-10T23:40:38.098Z,23.70
2022-08-10T23:43:05.438Z,23.60
2022-08-10T23:45:53.064Z,23.57
2022-08-10T23:48:23.159Z,23.48
2022-08-10T23:50:58.631Z,23.41
2022-08-10T23:53:33.005Z,23.37
2022-08-10T23:56:02.174Z,23.36
2022-08-10T23:58:39.842Z,23.28
